Wind From: 10-12-2017 19:04 Until: 11-12-2017 16:00 warning for: Wind Level: Orange info button

Power and phone distribution networks may be disrupted for relatively long periods., Roofs and chimneys can be damaged. , Tree branches may break. , Vehicles can be deported. , Traffic may be disrupted, particularly on secondary roads in forest areas. Limit your trips. , Limit your speed in highway driving, especially if you drive a vehicle or hitch sensitive to wind. , Do not go for walks in forests or along the coast., In town, be vigilant against possible falling objects., Do not work on roofs and do not touch any electrical line fallen on the ground., Store or secure sensitive objects to wind or likely to be damaged., Always install power generators outside buildings. 


Meteo18 Weather Cam more information Meteo18 Weather Cam


Thunder radar more information blitzortung!


Rain radar more information rain snow radar


Visit our other weather sites:

Template documentation
and downloads

And another site



Weather Underground History page Text

Daily Summary for June 3, 2017 Units:  English    Metric   Both
« Previous Day
Next Day »
Daily Weekly Monthly Yearly Custom
  High: Low: Average:
Temperature: 69.4 °F 57.7 °F 63.3 °F
Dew Point: 63.3 °F 55.9 °F 60.1 °F
Humidity: 96 % 75 % 90 %
Wind Speed: 9 mph 0 mph 1.9 mph
Wind Gust: 15 mph - -
Wind:- - WSW
Pressure: 30.1 in 30 in -
Precipitation: 0.37 in    
Historical Graphs
 
 
Tabular Data for June 3, 2017
Time Temperature Dew Point Pressure Wind Wind Speed Wind Gust Humidity Rainfall Rate (Hourly)
00:02 65.8 °F 60.8 °F 30 in Calm   2 mph 84 % 0 in
00:07 65.8 °F 61.2 °F 30 in Calm   2 mph 85 % 0 in
00:12 65.7 °F 61 °F 30 in Calm   2 mph 85 % 0 in
00:17 65.3 °F 61 °F 30 in Calm   1 mph 86 % 0 in
00:22 65.1 °F 60.8 °F 30 in Calm   1 mph 86 % 0 in
00:32 65.3 °F 61 °F 30 in Calm   1 mph 86 % 0 in
00:37 65.1 °F 60.8 °F 30 in Calm     86 % 0 in
00:42 64.8 °F 60.4 °F 30 in Calm     86 % 0 in
00:47 64.6 °F 60.6 °F 30 in Calm     87 % 0 in
00:52 64.6 °F 61 °F 30 in WNW 1 mph   88 % 0 in
00:57 64 °F 60.4 °F 30 in WNW 1 mph 1 mph 88 % 0 in
01:02 63.9 °F 60.6 °F 30 in WNW 1 mph 1 mph 89 % 0 in
01:07 63.7 °F 60.6 °F 30 in WNW 1 mph 1 mph 90 % 0 in
01:12 63.9 °F 60.8 °F 30 in Calm   1 mph 90 % 0 in
01:17 63.9 °F 60.6 °F 30 in Calm   1 mph 89 % 0 in
01:22 63.9 °F 60.6 °F 30 in Calm   1 mph 89 % 0 in
01:27 63.7 °F 60.6 °F 30 in NNE 1 mph 2 mph 90 % 0 in
01:32 63.5 °F 60.4 °F 30 in Calm   2 mph 90 % 0 in
01:37 63.5 °F 60.4 °F 30 in Calm   2 mph 90 % 0 in
01:42 63.5 °F 60.4 °F 30 in Calm   2 mph 90 % 0 in
01:47 63.3 °F 60.3 °F 30 in Calm   1 mph 90 % 0 in
01:52 63.1 °F 60.1 °F 30 in Calm   1 mph 90 % 0 in
01:57 63 °F 60.3 °F 30 in Calm   1 mph 91 % 0 in
02:02 63 °F 60.3 °F 30 in WNW 1 mph 1 mph 91 % 0 in
02:07 63 °F 60.3 °F 30 in Calm   1 mph 91 % 0 in
02:12 62.8 °F 60.1 °F 30 in Calm   1 mph 91 % 0 in
02:17 62.8 °F 60.1 °F 30 in Calm   1 mph 91 % 0 in
02:22 62.8 °F 60.1 °F 30 in Calm   1 mph 91 % 0 in
02:27 62.6 °F 59.9 °F 30 in Calm     91 % 0 in
02:32 62.4 °F 60.1 °F 30 in WNW 1 mph 1 mph 92 % 0 in
02:37 62.2 °F 59.9 °F 30 in WNW 1 mph 1 mph 92 % 0 in
02:42 62.1 °F 59.7 °F 30 in Calm   1 mph 92 % 0 in
02:47 62.1 °F 59.7 °F 30 in Calm   1 mph 92 % 0 in
02:52 62.1 °F 59.7 °F 30 in Calm   1 mph 92 % 0 in
02:57 62.1 °F 59.7 °F 30 in Calm   1 mph 92 % 0 in
03:02 62.1 °F 59.7 °F 30 in Calm     92 % 0 in
03:07 62.1 °F 59.7 °F 30 in Calm     92 % 0 in
03:12 61.9 °F 59.5 °F 30 in Calm     92 % 0 in
03:17 61.5 °F 59.2 °F 30 in Calm     92 % 0 in
03:22 61.3 °F 59.4 °F 30 in Calm   1 mph 93 % 0 in
03:27 61.2 °F 59.2 °F 30 in WNW 1 mph 1 mph 93 % 0 in
03:32 61.2 °F 59.2 °F 30 in WNW 1 mph 2 mph 93 % 0 in
03:37 61.2 °F 59.4 °F 30 in Calm   2 mph 94 % 0 in
03:42 61.2 °F 59.4 °F 30 in WNW 2 mph 2 mph 94 % 0 in
03:47 61.2 °F 59.2 °F 30 in WNW 1 mph 2 mph 93 % 0 in
03:52 61 °F 59.2 °F 30 in Calm   2 mph 94 % 0 in
03:57 61 °F 59.2 °F 30 in Calm   2 mph 94 % 0 in
04:02 60.6 °F 58.8 °F 30 in Calm   1 mph 94 % 0 in
04:07 60.6 °F 58.8 °F 30 in WNW 1 mph 2 mph 94 % 0 in
04:12 60.6 °F 58.8 °F 30 in WNW 1 mph 2 mph 94 % 0 in
04:17 60.6 °F 58.8 °F 30 in Calm   2 mph 94 % 0 in
04:22 60.8 °F 59 °F 30 in Calm   2 mph 94 % 0 in
04:27 61 °F 59.2 °F 30 in Calm   2 mph 94 % 0 in
04:32 61.2 °F 59.4 °F 30 in Calm   1 mph 94 % 0 in
04:37 61.2 °F 59.4 °F 30 in Calm   1 mph 94 % 0 in
04:42 61 °F 59.2 °F 30 in Calm   1 mph 94 % 0 in
04:47 61.2 °F 59.4 °F 30 in Calm     94 % 0 in
04:52 61.2 °F 59.4 °F 30 in Calm     94 % 0 in
04:57 61.2 °F 59.4 °F 30 in Calm     94 % 0 in
05:02 61.3 °F 59.5 °F 30 in Calm     94 % 0 in
05:12 61.3 °F 59.5 °F 30 in Calm     94 % 0 in
05:17 61.2 °F 59.4 °F 30 in Calm     94 % 0 in
05:22 61.2 °F 59.4 °F 30 in Calm     94 % 0 in
05:27 61 °F 59.2 °F 30 in Calm     94 % 0 in
05:32 61 °F 59.2 °F 30 in Calm     94 % 0 in
05:37 61 °F 59.2 °F 30 in Calm     94 % 0 in
05:42 61.2 °F 59.4 °F 30 in Calm     94 % 0 in
05:47 61.2 °F 59.4 °F 30 in Calm     94 % 0 in
05:52 61 °F 59.2 °F 30 in Calm     94 % 0 in
05:57 60.6 °F 58.8 °F 30 in Calm     94 % 0 in
06:02 60.6 °F 58.8 °F 30 in Calm     94 % 0 in
06:12 60.6 °F 58.8 °F 30 in Calm     94 % 0 in
06:17 60.4 °F 58.6 °F 30 in Calm     94 % 0 in
06:22 60.1 °F 58.3 °F 30 in Calm     94 % 0 in
06:27 60.1 °F 58.3 °F 30 in Calm     94 % 0 in
06:32 60.1 °F 58.6 °F 30 in Calm     95 % 0 in
06:37 60.3 °F 58.8 °F 30 in Calm     95 % 0 in
06:42 60.4 °F 59 °F 30 in Calm     95 % 0 in
06:47 61 °F 59.5 °F 30 in Calm     95 % 0 in
06:52 61.7 °F 60.3 °F 30 in Calm     95 % 0 in
07:02 62.4 °F 60.6 °F 30 in Calm     94 % 0 in
07:07 63.1 °F 61.3 °F 30 in Calm     94 % 0 in
07:12 63.3 °F 61.3 °F 30 in Calm     93 % 0 in
07:17 63 °F 60.6 °F 30 in Calm     92 % 0 in
07:22 63 °F 61 °F 30 in Calm     93 % 0 in
07:27 62.8 °F 60.4 °F 30 in Calm   3 mph 92 % 0 in
07:32 62.8 °F 60.8 °F 30 in Calm   3 mph 93 % 0 in
07:42 62.8 °F 60.8 °F 30 in Calm   3 mph 93 % 0 in
07:47 62.8 °F 60.8 °F 30 in Calm   2 mph 93 % 0 in
07:52 62.8 °F 60.8 °F 30 in Calm   2 mph 93 % 0 in
07:57 62.8 °F 60.8 °F 30 in Calm   2 mph 93 % 0 in
08:02 62.8 °F 60.8 °F 30 in Calm   1 mph 93 % 0 in
08:07 63 °F 61 °F 30 in Calm   1 mph 93 % 0 in
08:12 63 °F 61 °F 30 in Calm   1 mph 93 % 0 in
08:17 63 °F 61 °F 30 in WNW 1 mph 2 mph 93 % 0 in
08:22 63.1 °F 61.3 °F 30 in SSW 2 mph 2 mph 94 % 0 in
08:27 63.3 °F 61.5 °F 30 in SSW 3 mph 5 mph 94 % 0 in
08:32 63.3 °F 61.3 °F 30 in SW 3 mph 7 mph 93 % 0 in
08:37 63.3 °F 61.5 °F 30 in SW 1 mph 7 mph 94 % 0 in
08:42 63.3 °F 61.5 °F 30 in Calm   6 mph 94 % 0 in
08:47 63.3 °F 61.5 °F 30 in Calm   6 mph 94 % 0 in
08:52 63.7 °F 61.9 °F 30 in Calm   3 mph 94 % 0 in
08:57 63.9 °F 62.1 °F 30 in Calm   2 mph 94 % 0 in
09:02 64.2 °F 62.4 °F 30 in Calm   2 mph 94 % 0 in
09:07 64.6 °F 62.8 °F 30 in NNW 1 mph 3 mph 94 % 0 in
09:12 64.8 °F 62.6 °F 30 in WNW 2 mph 5 mph 93 % 0 in
09:17 64.9 °F 62.8 °F 30 in West 2 mph 5 mph 93 % 0 in
09:22 65.1 °F 63 °F 30 in WSW 2 mph 5 mph 93 % 0 in
09:27 65.1 °F 63 °F 30 in West 1 mph 5 mph 93 % 0 in
09:32 65.5 °F 63.3 °F 30 in SW 1 mph 3 mph 93 % 0 in
09:37 65.5 °F 63.1 °F 30 in SSW 2 mph 3 mph 92 % 0 in
09:42 65.5 °F 63.1 °F 30 in SSW 4 mph 5 mph 92 % 0 in
09:47 65.5 °F 63.1 °F 30 in SSW 3 mph 5 mph 92 % 0 in
09:52 65.5 °F 63.1 °F 30 in SSW 2 mph 5 mph 92 % 0 in
09:57 65.5 °F 63.1 °F 30 in SSW 2 mph 5 mph 92 % 0 in
10:02 65.1 °F 62.4 °F 30 in SW 6 mph 6 mph 91 % 0 in
10:07 64.8 °F 62.4 °F 30 in SW 8 mph 8 mph 92 % 0 in
10:12 64.2 °F 61.5 °F 30 in SW 5 mph 8 mph 91 % 0 in
10:17 64 °F 61.7 °F 30 in SSW 2 mph 9 mph 92 % 0 in
10:22 63.7 °F 61 °F 30 in SW 9 mph 9 mph 91 % 0 in
10:27 63.5 °F 60.8 °F 30 in SW 8 mph 11 mph 91 % 0 in
10:32 63.3 °F 60.3 °F 30 in SSE 8 mph 11 mph 90 % 0 in
10:37 63.3 °F 60.3 °F 30 in SSW 5 mph 12 mph 90 % 0 in
10:42 63.5 °F 60.4 °F 30 in SSE 4 mph 12 mph 90 % 0 in
10:47 63.7 °F 60.6 °F 30 in SW 3 mph 12 mph 90 % 0 in
10:52 63.9 °F 60.6 °F 30 in SSW 3 mph 9 mph 89 % 0 in
10:57 63.9 °F 60.6 °F 30 in WSW 4 mph 8 mph 89 % 0 in
11:02 64 °F 60.8 °F 30 in WSW 3 mph 7 mph 89 % 0 in
11:07 64.2 °F 61.2 °F 30 in SW 2 mph 7 mph 90 % 0 in
11:12 64.4 °F 61.3 °F 30 in SSW 1 mph 6 mph 90 % 0 in
11:17 64.6 °F 61.5 °F 30 in WSW 3 mph 6 mph 90 % 0 in
11:22 64.9 °F 61.7 °F 30 in SSW 2 mph 5 mph 89 % 0 in
11:27 65.1 °F 61.2 °F 30 in SSW 3 mph 5 mph 87 % 0 in
11:32 65.5 °F 61.2 °F 30 in WSW 4 mph 6 mph 86 % 0 in
11:37 65.5 °F 61.2 °F 30 in SW 3 mph 6 mph 86 % 0 in
11:42 65.5 °F 60.8 °F 30 in SSW 3 mph 6 mph 85 % 0 in
11:47 65.7 °F 61 °F 30 in SW 4 mph 7 mph 85 % 0 in
11:52 65.8 °F 61.2 °F 30 in SSW 2 mph 8 mph 85 % 0 in
12:02 66 °F 60.4 °F 30 in West 4 mph 7 mph 82 % 0 in
12:07 66 °F 60.6 °F 30 in SW 4 mph 7 mph 83 % 0 in
12:12 66 °F 60.6 °F 30 in SW 2 mph 7 mph 83 % 0 in
12:17 66.4 °F 60.1 °F 30 in SW 6 mph 8 mph 80 % 0 in
12:22 66.2 °F 59.9 °F 30 in SSW 2 mph 8 mph 80 % 0 in
12:32 66.4 °F 60.1 °F 30 in SW 5 mph 7 mph 80 % 0 in
12:42 66 °F 60.1 °F 30 in SW 2 mph 7 mph 81 % 0 in
12:47 66 °F 60.4 °F 30 in SW 2 mph 7 mph 82 % 0 in
12:52 66 °F 60.6 °F 30 in SSW 4 mph 7 mph 83 % 0 in
12:57 65.8 °F 60.6 °F 30 in SSW 3 mph 6 mph 83 % 0 in
13:02 65.8 °F 60.6 °F 30 in WSW 4 mph 6 mph 83 % 0.01 in
13:12 66.4 °F 61.3 °F 30 in SSW 4 mph 7 mph 84 % 0.01 in
13:17 66.6 °F 61.2 °F 30 in SSW 1 mph 6 mph 83 % 0.01 in
13:22 66.9 °F 61.9 °F 30 in SW 2 mph 7 mph 84 % 0.01 in
13:27 67.3 °F 61.9 °F 30 in SSW 5 mph 7 mph 83 % 0.01 in
13:32 67.5 °F 61.7 °F 30 in WSW 5 mph 8 mph 82 % 0.01 in
13:37 67.6 °F 61.5 °F 30 in SSW 5 mph 8 mph 81 % 0.01 in
13:42 67.6 °F 61.5 °F 30 in SW 5 mph 8 mph 81 % 0.01 in
13:52 67.8 °F 61.7 °F 30 in WSW 4 mph 9 mph 81 % 0.01 in
13:57 67.8 °F 61.3 °F 30 in WSW 2 mph 9 mph 80 % 0.01 in
14:02 68.2 °F 61.7 °F 30 in SW 5 mph 9 mph 80 % 0 in
14:07 68 °F 61.5 °F 30 in WSW 6 mph 9 mph 80 % 0 in
14:12 67.8 °F 61 °F 30 in West 5 mph 9 mph 79 % 0 in
14:22 68.2 °F 61.7 °F 30 in WSW 4 mph 9 mph 80 % 0 in
14:27 68.4 °F 61.5 °F 30 in SW 5 mph 9 mph 79 % 0 in
14:32 68.4 °F 61.5 °F 30 in West 5 mph 9 mph 79 % 0 in
14:37 68.4 °F 61.9 °F 30 in WNW 5 mph 9 mph 80 % 0 in
14:42 68.4 °F 61.5 °F 30 in WSW 3 mph 11 mph 79 % 0 in
14:47 68.4 °F 60.1 °F 30 in WSW 4 mph 11 mph 75 % 0 in
14:52 68.4 °F 60.4 °F 30 in WSW 3 mph 11 mph 76 % 0 in
15:02 68.4 °F 60.8 °F 30 in WNW 5 mph 8 mph 77 % 0 in
15:07 68.5 °F 61.3 °F 30 in Calm   7 mph 78 % 0 in
15:12 68.9 °F 61.3 °F 30 in WSW 2 mph 7 mph 77 % 0 in
15:17 69.1 °F 61.9 °F 30 in WNW 3 mph 7 mph 78 % 0 in
15:22 69.3 °F 61.7 °F 30 in WNW 2 mph 4 mph 77 % 0 in
15:32 69.4 °F 61.2 °F 30 in West 4 mph 4 mph 75 % 0 in
15:37 69.3 °F 61.3 °F 30 in WNW 3 mph 7 mph 76 % 0 in
15:42 69.3 °F 61.7 °F 30 in WNW 5 mph 7 mph 77 % 0 in
15:47 69.1 °F 61.9 °F 30 in WNW 5 mph 7 mph 78 % 0 in
15:52 68.7 °F 61.9 °F 30 in WNW 9 mph 9 mph 79 % 0 in
15:57 68.5 °F 61.7 °F 30 in West 2 mph 10 mph 79 % 0 in
16:02 68.5 °F 61.7 °F 30 in West 1 mph 10 mph 79 % 0 in
16:07 68.5 °F 61.7 °F 30 in WNW 6 mph 10 mph 79 % 0 in
16:12 68.4 °F 61.2 °F 30 in NW 4 mph 7 mph 78 % 0 in
16:17 68.2 °F 61 °F 30 in WNW 3 mph 7 mph 78 % 0 in
16:22 67.8 °F 61.3 °F 30 in WNW 2 mph 11 mph 80 % 0 in
16:27 67.5 °F 61.2 °F 30 in West 5 mph 11 mph 80 % 0 in
16:32 67.1 °F 60.8 °F 30 in NNW 3 mph 11 mph 80 % 0 in
16:37 66.7 °F 60.4 °F 30 in West 5 mph 10 mph 80 % 0 in
16:47 66.2 °F 60.8 °F 30 in WNW 5 mph 10 mph 83 % 0 in
16:52 65.8 °F 60.8 °F 30 in WNW 5 mph 9 mph 84 % 0.01 in
16:57 65.5 °F 61.2 °F 30 in WNW 2 mph 9 mph 86 % 0.02 in
17:02 65.1 °F 61.2 °F 30 in WNW 6 mph 9 mph 87 % 0.02 in
17:07 64.9 °F 61 °F 30 in West 4 mph 8 mph 87 % 0.02 in
17:12 64.8 °F 61.2 °F 30 in West 2 mph 8 mph 88 % 0.02 in
17:17 64.6 °F 61 °F 30 in WSW 7 mph 10 mph 88 % 0.02 in
17:22 64.6 °F 61.3 °F 30 in NW 4 mph 10 mph 89 % 0.02 in
17:27 64.6 °F 61.3 °F 30 in NW 4 mph 10 mph 89 % 0.02 in
17:37 64 °F 61 °F 30 in NW 6 mph 9 mph 90 % 0.05 in
17:42 63.9 °F 60.8 °F 30 in NNE 5 mph 10 mph 90 % 0.05 in
17:52 63.3 °F 60.6 °F 30 in NW 3 mph 10 mph 91 % 0.04 in
17:57 63.1 °F 60.4 °F 30 in NW 6 mph 10 mph 91 % 0.04 in
18:02 62.6 °F 59.5 °F 30 in NW 7 mph 11 mph 90 % 0.04 in
18:12 61.9 °F 59 °F 30 in NNW 6 mph 15 mph 90 % 0.05 in
18:17 61.3 °F 58.5 °F 30 in WNW 7 mph 15 mph 90 % 0.05 in
18:22 61 °F 58.1 °F 30 in NW 3 mph 13 mph 90 % 0.06 in
18:32 60.6 °F 57.9 °F 30 in NW 5 mph 11 mph 91 % 0.05 in
18:42 60.6 °F 57.9 °F 30 in WNW 4 mph 11 mph 91 % 0.05 in
18:47 60.6 °F 57.9 °F 30 in NW 3 mph 10 mph 91 % 0.04 in
18:52 60.6 °F 57.9 °F 30 in Calm   10 mph 91 % 0.04 in
18:57 60.6 °F 57.9 °F 30 in WNW 2 mph 8 mph 91 % 0.04 in
19:02 60.6 °F 57.9 °F 30 in Calm   8 mph 91 % 0.03 in
19:07 60.6 °F 58.3 °F 30 in NW 2 mph 8 mph 92 % 0.03 in
19:12 60.6 °F 58.3 °F 30 in Calm   5 mph 92 % 0.03 in
19:17 60.6 °F 57.9 °F 30 in Calm   4 mph 91 % 0.02 in
19:27 60.6 °F 57.9 °F 30 in Calm   2 mph 91 % 0.02 in
19:32 60.6 °F 58.3 °F 30 in Calm   2 mph 92 % 0.02 in
19:42 60.6 °F 58.3 °F 30 in Calm   2 mph 92 % 0.02 in
19:47 60.6 °F 58.3 °F 30 in Calm   2 mph 92 % 0.02 in
19:52 60.4 °F 58.1 °F 30 in Calm   2 mph 92 % 0.02 in
19:57 60.4 °F 58.1 °F 30 in Calm   1 mph 92 % 0.02 in
20:02 60.4 °F 58.1 °F 30 in Calm   1 mph 92 % 0.02 in
20:12 60.4 °F 58.5 °F 30 in Calm     93 % 0.02 in
20:17 60.4 °F 58.5 °F 30 in Calm     93 % 0.02 in
20:22 60.4 °F 58.5 °F 30 in Calm     93 % 0.02 in
20:27 60.4 °F 58.6 °F 30 in Calm     94 % 0.02 in
20:32 60.6 °F 58.8 °F 30 in Calm     94 % 0.02 in
20:37 60.6 °F 58.8 °F 30 in Calm     94 % 0.02 in
20:42 60.8 °F 59.4 °F 30 in WNW 3 mph 3 mph 95 % 0.04 in
20:47 61 °F 59.2 °F 30 in NNE 4 mph 9 mph 94 % 0.1 in
20:57 60.6 °F 58.8 °F 30 in NW 1 mph 7 mph 94 % 0.16 in
21:02 60.6 °F 58.8 °F 30 in NW 2 mph 4 mph 94 % 0.17 in
21:12 60.4 °F 59 °F 30 in Calm   3 mph 95 % 0.17 in
21:17 60.4 °F 59 °F 30 in Calm   3 mph 95 % 0.18 in
21:22 60.3 °F 58.8 °F 30 in Calm   3 mph 95 % 0.19 in
21:27 60.3 °F 58.8 °F 30 in Calm   1 mph 95 % 0.19 in
21:32 60.3 °F 58.8 °F 30 in Calm   1 mph 95 % 0.18 in
21:37 60.3 °F 58.8 °F 30 in Calm   1 mph 95 % 0.19 in
21:42 60.3 °F 58.8 °F 30 in Calm     95 % 0.16 in
21:47 60.3 °F 58.8 °F 30 in Calm     95 % 0.1 in
21:52 60.3 °F 58.8 °F 30 in Calm     95 % 0.06 in
21:57 60.4 °F 59 °F 30 in Calm     95 % 0.05 in
22:02 60.3 °F 58.8 °F 30 in Calm     95 % 0.04 in
22:07 60.4 °F 59.4 °F 30 in Calm     96 % 0.04 in
22:12 60.4 °F 59.4 °F 30 in Calm     96 % 0.04 in
22:17 60.4 °F 59.4 °F 30 in WNW 2 mph 3 mph 96 % 0.03 in
22:22 60.4 °F 59 °F 30 in WNW 4 mph 5 mph 95 % 0.02 in
22:27 60.3 °F 58.8 °F 30 in NNW 2 mph 5 mph 95 % 0.02 in
22:37 60.1 °F 58.6 °F 30 in WNW 5 mph 5 mph 95 % 0.02 in
22:42 60.1 °F 58.6 °F 30 in WNW 3 mph 5 mph 95 % 0.02 in
22:47 59.9 °F 58.5 °F 30.1 in WNW 6 mph 6 mph 95 % 0.02 in
22:52 59.7 °F 58.3 °F 30.1 in NW 1 mph 7 mph 95 % 0.02 in
22:57 59.7 °F 58.3 °F 30.1 in NW 3 mph 7 mph 95 % 0.01 in
23:02 59.5 °F 58.1 °F 30.1 in WNW 5 mph 7 mph 95 % 0.01 in
23:12 59.4 °F 57.9 °F 30.1 in NNW 2 mph 7 mph 95 % 0 in
23:17 59.4 °F 57.9 °F 30.1 in WNW 1 mph 8 mph 95 % 0 in
23:22 59.2 °F 57.7 °F 30.1 in WNW 4 mph 8 mph 95 % 0 in
23:27 59 °F 57.6 °F 30.1 in NW 6 mph 8 mph 95 % 0 in
23:37 58.6 °F 57.2 °F 30.1 in WNW 4 mph 9 mph 95 % 0.01 in
23:47 58.3 °F 56.5 °F 30.1 in NW 2 mph 9 mph 94 % 0.01 in
23:52 57.9 °F 56.1 °F 30.1 in North 4 mph 9 mph 94 % 0.02 in
23:57 57.7 °F 55.9 °F 30.1 in North 3 mph 9 mph 94 % 0.02 in
Meteo18
Compliments of Weather Underground - 4 mb

Script developed by  Jim McMurry - jmcmurry@mwt.net Adapted for the template by  Wim van der Kuil - Leuven-Template.eu

You find our weather info also at:

European Weather Network

Weather Underground

Equipment we use:

Weather-station
Davis Vue

Weather-program
Meteohub

Weather-server
Raspberry PI 2 B+

Provider
1 and 1

Davis Vue

Meteohub

Raspberry PI 2 B+

1 and 1